createdAt,value
2023-05-18T00:04:29.846Z,54.57
2023-05-18T00:09:35.025Z,54.69
2023-05-18T00:14:38.544Z,54.70
2023-05-18T00:19:46.921Z,55.41
2023-05-18T00:24:50.634Z,55.04
2023-05-18T00:29:54.221Z,55.14
2023-05-18T00:34:59.144Z,55.00
2023-05-18T00:40:02.830Z,55.49
2023-05-18T00:45:09.395Z,55.42
2023-05-18T00:50:14.597Z,55.41
2023-05-18T00:55:18.349Z,55.44
2023-05-18T01:00:22.941Z,55.44
2023-05-18T01:05:28.034Z,55.73
2023-05-18T01:10:35.464Z,55.58
2023-05-18T01:15:40.670Z,55.84
2023-05-18T01:20:50.873Z,57.02
2023-05-18T01:26:15.536Z,56.45
2023-05-18T01:31:19.225Z,56.02
2023-05-18T01:36:22.834Z,55.88
2023-05-18T01:41:29.789Z,56.08
2023-05-18T01:46:37.930Z,56.19
2023-05-18T01:51:46.117Z,56.34
2023-05-18T01:56:54.490Z,56.00
2023-05-18T02:02:01.311Z,55.94
2023-05-18T02:07:05.078Z,55.32
2023-05-18T02:12:10.310Z,55.03
2023-05-18T02:17:13.850Z,55.00
2023-05-18T02:22:17.462Z,54.97
2023-05-18T02:27:22.439Z,54.72
2023-05-18T02:32:25.978Z,54.78
2023-05-18T02:37:29.808Z,54.49
2023-05-18T02:42:34.763Z,54.58
2023-05-18T02:47:38.646Z,53.70
2023-05-18T02:52:42.313Z,53.69
2023-05-18T02:57:48.364Z,53.92
2023-05-18T03:02:52.068Z,53.49
2023-05-18T03:07:55.941Z,52.83
2023-05-18T03:13:02.320Z,52.23
2023-05-18T03:18:06.155Z,48.29
2023-05-18T03:23:09.860Z,45.19
2023-05-18T03:28:14.783Z,44.93
2023-05-18T03:33:18.292Z,45.52
2023-05-18T03:38:21.877Z,44.96
2023-05-18T03:43:26.857Z,43.19
2023-05-18T03:48:31.460Z,40.80
2023-05-18T03:53:36.398Z,36.89
2023-05-18T03:58:42.560Z,29.03
2023-05-18T04:03:46.243Z,25.46
2023-05-18T04:08:50.405Z,23.72
2023-05-18T04:13:55.086Z,23.13
2023-05-18T04:18:58.647Z,19.77
2023-05-18T04:24:05.058Z,19.11
2023-05-18T04:29:11.008Z,17.90
2023-05-18T04:34:17.977Z,16.92
2023-05-18T04:39:23.654Z,16.00
2023-05-18T04:44:29.501Z,15.32
2023-05-18T04:49:33.368Z,15.08
2023-05-18T04:54:37.251Z,14.35
2023-05-18T04:59:42.754Z,13.26
2023-05-18T05:04:46.982Z,12.25
2023-05-18T05:09:50.546Z,12.61
2023-05-18T05:14:55.609Z,11.90
2023-05-18T05:19:59.186Z,11.93
2023-05-18T05:25:04.503Z,12.04
2023-05-18T05:30:11.889Z,11.41
2023-05-18T05:35:15.553Z,11.80
2023-05-18T05:40:19.298Z,11.14
2023-05-18T05:45:25.963Z,10.79
2023-05-18T05:50:29.633Z,10.63
2023-05-18T05:55:33.429Z,10.17
2023-05-18T06:00:38.548Z,10.32
2023-05-18T06:05:42.097Z,9.70
2023-05-18T06:10:45.638Z,10.79
2023-05-18T06:15:50.771Z,9.34
2023-05-18T06:20:54.402Z,8.86
2023-05-18T06:25:57.948Z,7.88
2023-05-18T06:31:03.009Z,7.91
2023-05-18T06:36:07.136Z,8.34
2023-05-18T06:41:10.644Z,7.56
2023-05-18T06:46:22.455Z,7.15
2023-05-18T06:51:26.004Z,7.76
2023-05-18T06:56:29.643Z,8.15
2023-05-18T07:01:34.646Z,8.19
2023-05-18T07:06:38.591Z,8.37
2023-05-18T07:11:42.373Z,7.37
2023-05-18T07:16:52.486Z,7.58
2023-05-18T07:21:56.994Z,7.14
2023-05-18T07:27:00.996Z,7.26
2023-05-18T07:32:06.642Z,6.91
2023-05-18T07:37:10.200Z,6.93
2023-05-18T07:42:13.737Z,6.82
2023-05-18T07:47:19.408Z,7.76
2023-05-18T07:52:22.978Z,8.39
2023-05-18T07:57:27.210Z,9.50
2023-05-18T08:02:34.012Z,10.41
2023-05-18T08:07:37.988Z,10.09
2023-05-18T08:12:41.646Z,11.03
2023-05-18T08:17:47.613Z,11.66
2023-05-18T08:22:51.179Z,12.33
2023-05-18T08:27:55.136Z,13.57
2023-05-18T08:33:00.157Z,14.61
2023-05-18T08:38:05.682Z,15.00
2023-05-18T08:43:19.277Z,14.47
2023-05-18T08:48:27.876Z,14.59
2023-05-18T08:53:33.990Z,15.73
2023-05-18T08:58:45.638Z,16.62
2023-05-18T09:03:51.820Z,16.87
2023-05-18T09:08:57.376Z,16.97
2023-05-18T09:14:01.913Z,16.84
2023-05-18T09:19:07.318Z,17.60
2023-05-18T09:24:11.895Z,16.77
2023-05-18T09:29:19.277Z,16.75
2023-05-18T09:34:24.798Z,17.12
2023-05-18T09:39:28.423Z,16.63
2023-05-18T09:44:33.389Z,16.55
2023-05-18T09:49:38.986Z,17.85
2023-05-18T09:54:42.596Z,18.29
2023-05-18T09:59:46.439Z,17.23
2023-05-18T10:04:51.617Z,18.03
2023-05-18T10:10:05.845Z,17.36
2023-05-18T10:15:12.138Z,16.90
2023-05-18T10:20:20.104Z,17.46
2023-05-18T10:25:27.271Z,17.52
2023-05-18T10:30:32.642Z,17.56
2023-05-18T10:35:39.938Z,17.32
2023-05-18T10:40:45.180Z,17.52
2023-05-18T10:45:52.927Z,17.16
2023-05-18T10:50:58.945Z,18.11
2023-05-18T10:56:03.281Z,18.03
2023-05-18T11:01:10.862Z,17.72
2023-05-18T11:06:25.806Z,18.58
2023-05-18T11:11:30.394Z,18.62
2023-05-18T11:16:35.634Z,19.64
2023-05-18T11:21:56.293Z,20.74
2023-05-18T11:27:03.724Z,21.05
2023-05-18T11:32:30.125Z,20.85
2023-05-18T11:37:51.659Z,20.69
2023-05-18T11:43:00.205Z,20.64
2023-05-18T11:48:04.250Z,19.83
2023-05-18T11:53:17.463Z,19.70
2023-05-18T11:58:21.556Z,19.52
2023-05-18T12:03:26.145Z,20.48
2023-05-18T12:08:31.413Z,20.66
2023-05-18T12:13:35.457Z,20.93
2023-05-18T12:18:40.394Z,20.33
2023-05-18T12:23:45.746Z,20.81
2023-05-18T12:28:49.246Z,21.05
2023-05-18T12:33:53.859Z,21.24
2023-05-18T12:38:58.761Z,21.21
2023-05-18T12:44:02.612Z,21.41
2023-05-18T12:49:07.182Z,21.95
2023-05-18T12:54:12.103Z,22.07
2023-05-18T12:59:19.413Z,21.89
2023-05-18T13:04:23.753Z,22.65
2023-05-18T13:09:28.630Z,22.83
2023-05-18T13:14:33.182Z,22.50
2023-05-18T13:19:37.021Z,23.61
2023-05-18T13:24:42.951Z,25.53
2023-05-18T13:29:46.387Z,26.91
2023-05-18T13:34:49.576Z,26.00
2023-05-18T13:39:54.433Z,27.40
2023-05-18T13:44:57.902Z,27.65
2023-05-18T13:50:01.381Z,27.13
2023-05-18T13:55:09.062Z,27.36
2023-05-18T14:00:14.707Z,27.91
2023-05-18T14:05:18.223Z,28.12
2023-05-18T14:10:23.081Z,28.48
2023-05-18T14:15:26.512Z,29.18
2023-05-18T14:20:30.919Z,29.51
2023-05-18T14:25:37.169Z,30.24
2023-05-18T14:30:40.958Z,30.79
2023-05-18T14:35:44.506Z,31.63
2023-05-18T14:40:49.598Z,31.70
2023-05-18T14:46:04.335Z,32.36
2023-05-18T14:51:11.440Z,32.92
2023-05-18T14:56:16.299Z,33.43
2023-05-18T15:01:19.896Z,33.59
2023-05-18T15:06:23.476Z,33.56
2023-05-18T15:11:28.403Z,34.40
2023-05-18T15:16:32.216Z,34.86
2023-05-18T15:21:35.716Z,35.49
2023-05-18T15:26:41.029Z,36.16
2023-05-18T15:31:44.491Z,37.12
2023-05-18T15:36:48.831Z,37.63
2023-05-18T15:41:53.677Z,38.51
2023-05-18T15:46:57.113Z,39.17
2023-05-18T15:52:00.956Z,39.89
2023-05-18T15:57:06.480Z,39.91
2023-05-18T16:02:09.957Z,40.24
2023-05-18T16:07:15.002Z,40.24
2023-05-18T16:12:19.832Z,40.04
2023-05-18T16:17:23.347Z,40.15
2023-05-18T16:22:26.895Z,40.39
2023-05-18T16:27:31.882Z,41.05
2023-05-18T16:32:35.568Z,41.78
2023-05-18T16:37:39.314Z,42.29
2023-05-18T16:42:47.474Z,42.67
2023-05-18T16:47:51.095Z,43.52
2023-05-18T16:52:54.528Z,43.86
2023-05-18T16:57:59.608Z,44.84
2023-05-18T17:03:04.454Z,45.23
2023-05-18T17:08:08.004Z,45.51
2023-05-18T17:13:12.876Z,46.13
2023-05-18T17:18:16.592Z,46.32
2023-05-18T17:23:20.153Z,46.04
2023-05-18T17:28:25.071Z,46.69
2023-05-18T17:33:28.495Z,47.10
2023-05-18T17:38:32.180Z,47.16
2023-05-18T17:43:37.796Z,47.31
2023-05-18T17:48:41.281Z,47.89
2023-05-18T17:53:44.728Z,48.70
2023-05-18T17:58:49.584Z,48.41
2023-05-18T18:03:53.408Z,48.67
2023-05-18T18:08:58.810Z,49.04
2023-05-18T18:14:03.833Z,49.77
2023-05-18T18:19:08.958Z,50.13
2023-05-18T18:24:14.101Z,50.32
2023-05-18T18:29:19.027Z,50.38
2023-05-18T18:34:22.627Z,50.63
2023-05-18T18:39:26.354Z,50.70
2023-05-18T18:44:31.283Z,50.79
2023-05-18T18:49:34.941Z,51.39
2023-05-18T18:54:38.528Z,51.60
2023-05-18T18:59:43.458Z,52.00
2023-05-18T19:04:46.970Z,52.69
2023-05-18T19:09:50.712Z,53.39
2023-05-18T19:14:55.815Z,53.67
2023-05-18T19:19:59.391Z,54.26
2023-05-18T19:25:02.983Z,53.94
2023-05-18T19:30:11.539Z,54.24
2023-05-18T19:35:15.330Z,54.00
2023-05-18T19:40:19.667Z,54.01
2023-05-18T19:45:25.350Z,54.07
2023-05-18T19:50:28.974Z,53.90
2023-05-18T19:55:32.653Z,53.72
2023-05-18T20:00:38.628Z,53.81
2023-05-18T20:05:43.906Z,54.07
2023-05-18T20:10:47.833Z,53.97
2023-05-18T20:15:52.859Z,54.02
2023-05-18T20:20:57.729Z,54.79
2023-05-18T20:26:01.333Z,54.70
2023-05-18T20:31:06.404Z,54.81
2023-05-18T20:36:10.185Z,55.00
2023-05-18T20:41:13.802Z,55.02
2023-05-18T20:46:25.067Z,55.21
2023-05-18T20:51:28.720Z,55.20
2023-05-18T20:56:32.327Z,55.67
2023-05-18T21:01:39.298Z,55.69
2023-05-18T21:06:44.104Z,55.59
2023-05-18T21:11:47.933Z,55.74
2023-05-18T21:16:53.719Z,55.53
2023-05-18T21:21:57.297Z,56.43
2023-05-18T21:27:01.395Z,56.17
2023-05-18T21:32:06.675Z,56.33
2023-05-18T21:37:10.293Z,56.57
2023-05-18T21:42:13.861Z,56.67
2023-05-18T21:47:18.868Z,56.58
2023-05-18T21:52:22.412Z,56.83
2023-05-18T21:57:26.058Z,56.53
2023-05-18T22:02:31.045Z,56.69
2023-05-18T22:07:34.601Z,56.63
2023-05-18T22:12:40.521Z,56.67
2023-05-18T22:17:46.267Z,56.79
2023-05-18T22:22:49.890Z,56.99
2023-05-18T22:27:53.713Z,57.35
2023-05-18T22:32:58.735Z,57.98
2023-05-18T22:38:02.290Z,58.01
2023-05-18T22:43:06.656Z,57.99
2023-05-18T22:48:11.587Z,58.01
2023-05-18T22:53:15.149Z,58.01
2023-05-18T22:58:18.738Z,58.17
2023-05-18T23:03:24.056Z,58.65
2023-05-18T23:08:27.748Z,58.97
2023-05-18T23:13:33.132Z,59.56
2023-05-18T23:18:38.944Z,59.64
2023-05-18T23:23:42.559Z,59.71
2023-05-18T23:28:46.029Z,60.08
2023-05-18T23:33:51.615Z,60.55
2023-05-18T23:38:59.168Z,60.92
2023-05-18T23:44:03.362Z,61.30
2023-05-18T23:49:09.640Z,61.61
2023-05-18T23:54:13.884Z,61.80
2023-05-18T23:59:17.994Z,62.13
